Time;durP1;ratioP1;P1;durP2;ratioP2;P2;SDS_P1;SDS_P2;PMS_P1;PMS_P2;Temp;Humidity;BMP_temperature;BMP_pressure;BME280_temperature;BME280_humidity;BME280_pressure;Samples;Min_cycle;Max_cycle;Signal;HPM_P1;HPM_P2
2020/12/19 00:00:21;;;;;;;10.02;9.00;;;8.90;99.90;;;;;;5005541;28;20207;-88
2020/12/19 00:02:47;;;;;;;10.05;9.20;;;8.90;99.90;;;;;;5005442;28;20185;-89
2020/12/19 00:05:13;;;;;;;10.07;8.90;;;8.90;99.90;;;;;;5023226;28;20203;-88
2020/12/19 00:07:38;;;;;;;11.27;9.65;;;8.80;99.90;;;;;;5021815;28;20187;-89
2020/12/19 00:10:04;;;;;;;10.23;9.20;;;8.80;99.90;;;;;;5003124;28;20180;-89
2020/12/19 00:12:30;;;;;;;14.67;9.50;;;8.80;99.90;;;;;;5018585;28;20173;-89
2020/12/19 00:14:56;;;;;;;13.30;9.40;;;8.80;99.90;;;;;;4997502;28;20176;-89
2020/12/19 00:17:22;;;;;;;12.80;9.03;;;8.80;99.90;;;;;;5018122;28;20323;-89
2020/12/19 00:19:48;;;;;;;10.05;9.15;;;8.80;99.90;;;;;;5021210;28;20184;-89
2020/12/19 00:22:13;;;;;;;10.43;9.43;;;8.80;99.90;;;;;;5018437;28;20216;-89
2020/12/19 00:24:39;;;;;;;10.03;8.83;;;8.80;99.90;;;;;;5034136;28;20205;-89
2020/12/19 00:27:09;;;;;;;10.47;9.37;;;8.80;99.90;;;;;;5018427;28;20169;-89
2020/12/19 00:29:35;;;;;;;13.27;9.93;;;8.80;99.90;;;;;;5018270;28;20204;-89
2020/12/19 00:32:02;;;;;;;12.80;9.40;;;8.80;99.90;;;;;;5018518;28;20184;-89
2020/12/19 00:34:28;;;;;;;11.37;9.23;;;8.80;99.90;;;;;;5017780;28;20273;-89
2020/12/19 00:36:54;;;;;;;10.97;8.77;;;8.80;99.90;;;;;;5014853;28;20232;-90
2020/12/19 00:39:24;;;;;;;10.13;9.27;;;8.80;99.90;;;;;;5015438;28;20263;-89
2020/12/19 00:41:50;;;;;;;13.03;9.03;;;8.80;99.90;;;;;;5020712;28;20165;-89
2020/12/19 00:44:17;;;;;;;9.67;8.73;;;8.80;99.90;;;;;;5023180;28;20272;-90
2020/12/19 00:46:45;;;;;;;8.97;8.07;;;8.80;99.90;;;;;;5027204;28;20181;-89
2020/12/19 00:49:12;;;;;;;11.47;8.30;;;8.80;99.90;;;;;;5022432;28;20231;-90
2020/12/19 00:51:42;;;;;;;12.67;9.50;;;8.90;99.90;;;;;;5023651;28;20224;-89
2020/12/19 00:54:07;;;;;;;10.87;9.77;;;8.90;99.90;;;;;;5023555;28;20680;-91
2020/12/19 00:56:34;;;;;;;13.33;9.53;;;8.80;99.90;;;;;;5041046;28;20201;-89
2020/12/19 00:59:00;;;;;;;12.10;10.20;;;8.80;99.90;;;;;;5040878;28;20173;-89
2020/12/19 01:01:26;;;;;;;10.03;9.00;;;8.80;99.90;;;;;;5040649;28;20189;-93
2020/12/19 01:03:54;;;;;;;13.45;10.13;;;8.70;99.90;;;;;;5021584;28;20263;-90
2020/12/19 01:06:21;;;;;;;11.70;10.50;;;8.70;99.90;;;;;;5018145;28;20211;-89
2020/12/19 01:08:55;;;;;;;16.63;10.80;;;8.70;99.90;;;;;;5018452;28;20173;-89
2020/12/19 01:11:25;;;;;;;11.57;10.47;;;8.70;99.90;;;;;;5017926;28;20219;-89
2020/12/19 01:13:54;;;;;;;14.57;11.20;;;8.70;99.90;;;;;;5020423;28;20153;-88
2020/12/19 01:16:22;;;;;;;11.55;10.32;;;8.60;99.90;;;;;;5040216;28;20199;-90
2020/12/19 01:18:51;;;;;;;12.23;10.13;;;8.60;99.90;;;;;;5036967;28;20176;-88
2020/12/19 01:21:28;;;;;;;15.87;10.40;;;8.60;99.90;;;;;;5017259;28;20176;-89
2020/12/19 01:23:57;;;;;;;11.80;10.60;;;8.60;99.90;;;;;;5017151;28;20161;-89
2020/12/19 01:26:23;;;;;;;15.33;11.33;;;8.60;99.90;;;;;;5017848;28;20184;-91
2020/12/19 01:28:49;;;;;;;15.27;11.03;;;8.60;99.90;;;;;;5003930;28;20185;-90
2020/12/19 01:31:19;;;;;;;14.47;10.47;;;8.60;99.90;;;;;;5018371;28;20550;-90
2020/12/19 01:33:45;;;;;;;15.53;11.10;;;8.60;99.90;;;;;;5017263;28;20260;-88
2020/12/19 01:36:15;;;;;;;14.87;10.60;;;8.60;99.90;;;;;;5017566;28;20199;-90
2020/12/19 01:38:42;;;;;;;12.80;10.60;;;8.60;99.90;;;;;;5017383;28;20250;-88
2020/12/19 01:41:08;;;;;;;14.32;10.68;;;8.60;99.90;;;;;;5017417;28;20231;-89
2020/12/19 01:43:48;;;;;;;17.77;12.03;;;8.60;99.90;;;;;;5016476;28;20296;-89
2020/12/19 01:46:26;;;;;;;19.67;11.03;;;8.70;99.90;;;;;;5016058;28;20176;-89
2020/12/19 01:48:57;;;;;;;18.07;10.43;;;8.70;99.90;;;;;;5016604;28;20168;-89
2020/12/19 01:51:27;;;;;;;19.33;11.47;;;8.70;99.90;;;;;;5016206;28;20184;-89
2020/12/19 01:53:53;;;;;;;18.87;11.27;;;8.70;99.90;;;;;;5015630;28;20172;-89
2020/12/19 01:56:44;;;;;;;18.63;10.97;;;8.70;99.90;;;;;;5014867;28;20696;-89
2020/12/19 01:59:12;;;;;;;17.37;9.47;;;8.70;99.90;;;;;;5009741;28;20203;-88
2020/12/19 02:01:48;;;;;;;18.13;10.70;;;8.70;99.90;;;;;;5015594;28;20267;-89
2020/12/19 02:04:14;;;;;;;16.73;10.37;;;8.70;99.90;;;;;;5015466;28;20184;-90
2020/12/19 02:06:42;;;;;;;11.50;10.03;;;8.70;99.90;;;;;;5015336;28;20173;-89
2020/12/19 02:09:09;;;;;;;13.13;9.90;;;8.70;99.90;;;;;;4999276;28;20322;-89
2020/12/19 02:11:34;;;;;;;12.40;9.80;;;8.70;99.90;;;;;;5015293;28;20172;-89
2020/12/19 02:14:00;;;;;;;12.57;9.83;;;8.70;99.90;;;;;;5017456;28;20169;-91
2020/12/19 02:16:26;;;;;;;13.73;9.97;;;8.80;99.90;;;;;;5018862;28;20196;-91
2020/12/19 02:18:53;;;;;;;13.30;9.37;;;8.80;99.90;;;;;;4999597;28;20181;-89
2020/12/19 02:21:19;;;;;;;10.73;8.63;;;8.80;99.90;;;;;;4982708;28;20271;-88
2020/12/19 02:23:44;;;;;;;13.77;9.60;;;8.80;99.90;;;;;;4996831;28;20716;-89
2020/12/19 02:26:10;;;;;;;9.70;8.37;;;8.80;99.90;;;;;;4995883;28;20177;-89
2020/12/19 02:28:36;;;;;;;11.27;8.50;;;8.70;99.90;;;;;;4979090;28;20247;-89
2020/12/19 02:31:01;;;;;;;9.83;7.70;;;8.70;99.90;;;;;;4997423;28;20660;-90
2020/12/19 02:33:27;;;;;;;9.37;7.57;;;8.80;99.90;;;;;;5015166;28;20176;-89
2020/12/19 02:35:53;;;;;;;10.13;9.00;;;8.80;99.90;;;;;;4998583;28;20226;-89
2020/12/19 02:38:18;;;;;;;9.43;8.53;;;8.80;99.90;;;;;;5014561;28;20299;-89
2020/12/19 02:40:44;;;;;;;8.83;7.70;;;8.80;99.90;;;;;;5014495;28;20264;-88
2020/12/19 02:43:09;;;;;;;8.60;7.80;;;8.90;99.90;;;;;;5014688;28;20180;-90
2020/12/19 02:45:35;;;;;;;12.97;8.40;;;8.90;99.90;;;;;;5031242;28;20173;-89
2020/12/19 02:48:01;;;;;;;10.83;8.20;;;8.90;99.90;;;;;;5030891;28;20529;-91
2020/12/19 02:50:26;;;;;;;9.98;8.32;;;8.90;99.90;;;;;;4997928;28;20550;-90
2020/12/19 02:52:54;;;;;;;12.33;8.97;;;8.90;99.90;;;;;;5014628;28;20184;-89
2020/12/19 02:55:20;;;;;;;9.25;7.97;;;8.90;99.90;;;;;;5014563;28;20531;-89
2020/12/19 02:57:45;;;;;;;8.07;7.27;;;8.90;99.90;;;;;;4981800;28;20229;-89
2020/12/19 03:00:11;;;;;;;13.00;8.77;;;8.90;99.90;;;;;;4998079;28;20242;-88
2020/12/19 03:02:37;;;;;;;9.87;8.37;;;8.80;99.90;;;;;;4997944;28;20184;-88
2020/12/19 03:05:02;;;;;;;10.52;7.28;;;8.90;99.90;;;;;;5015389;28;20181;-89
2020/12/19 03:07:28;;;;;;;8.27;7.03;;;8.90;99.90;;;;;;5014269;28;20184;-89
2020/12/19 03:09:54;;;;;;;13.40;7.83;;;8.90;99.90;;;;;;4998026;28;20634;-89
2020/12/19 03:12:20;;;;;;;9.03;7.53;;;8.90;99.90;;;;;;5014424;28;20184;-89
2020/12/19 03:14:45;;;;;;;13.30;7.90;;;8.90;99.90;;;;;;4997698;28;20184;-89
2020/12/19 03:17:11;;;;;;;8.40;7.60;;;8.90;99.90;;;;;;5014043;28;20196;-89
2020/12/19 03:19:36;;;;;;;8.03;6.80;;;8.90;99.90;;;;;;4997860;28;20196;-89
2020/12/19 03:22:02;;;;;;;12.85;7.88;;;8.90;99.90;;;;;;5014168;28;20169;-90
2020/12/19 03:24:28;;;;;;;12.45;7.60;;;8.90;99.90;;;;;;5018048;28;20173;-89
2020/12/19 03:26:53;;;;;;;8.57;7.60;;;8.90;99.90;;;;;;5038153;28;20179;-92
2020/12/19 03:29:19;;;;;;;10.98;7.25;;;8.90;99.90;;;;;;5021656;28;20180;-89
2020/12/19 03:31:44;;;;;;;11.20;8.18;;;8.90;99.90;;;;;;5004406;28;20183;-89
2020/12/19 03:34:10;;;;;;;13.20;8.07;;;8.90;99.90;;;;;;4998532;28;20177;-89
2020/12/19 03:36:36;;;;;;;13.07;8.32;;;8.90;99.90;;;;;;5014690;28;20209;-89
2020/12/19 03:39:03;;;;;;;12.47;8.40;;;8.90;99.90;;;;;;4997988;28;20197;-89
2020/12/19 03:41:29;;;;;;;12.65;8.90;;;8.90;99.90;;;;;;5026216;28;20164;-91
2020/12/19 03:43:55;;;;;;;12.33;7.50;;;8.90;99.90;;;;;;5151671;23;20222;-87
2020/12/19 03:46:23;;;;;;;14.65;8.38;;;8.90;99.90;;;;;;4993390;28;20173;-91
2020/12/19 03:48:48;;;;;;;13.60;8.73;;;8.90;99.90;;;;;;4962544;28;20200;-89
2020/12/19 03:51:14;;;;;;;11.35;8.30;;;8.90;99.90;;;;;;4958969;28;20272;-89
2020/12/19 03:53:40;;;;;;;14.02;8.38;;;8.90;99.90;;;;;;4970857;28;20167;-89
2020/12/19 03:56:07;;;;;;;13.43;8.60;;;8.80;99.90;;;;;;4971164;28;20181;-89
2020/12/19 03:58:35;;;;;;;10.80;8.33;;;8.80;99.90;;;;;;4974875;28;20185;-89
2020/12/19 04:01:03;;;;;;;11.63;8.93;;;8.90;99.90;;;;;;4974603;28;20257;-88
2020/12/19 04:03:29;;;;;;;15.97;10.10;;;8.90;99.90;;;;;;4990406;28;20257;-89
2020/12/19 04:05:55;;;;;;;11.60;9.60;;;8.90;99.90;;;;;;4958726;28;20269;-89
2020/12/19 04:08:20;;;;;;;16.87;9.50;;;8.80;99.90;;;;;;4974452;28;20177;-88
2020/12/19 04:10:46;;;;;;;15.30;10.57;;;8.80;99.90;;;;;;4958484;28;20641;-88
2020/12/19 04:13:12;;;;;;;21.63;11.27;;;8.80;99.90;;;;;;4974679;28;20654;-89
2020/12/19 04:15:37;;;;;;;19.67;11.43;;;8.80;99.90;;;;;;4972078;28;20197;-89
2020/12/19 04:18:06;;;;;;;15.90;11.32;;;8.80;99.90;;;;;;4975709;28;20205;-89
2020/12/19 04:20:32;;;;;;;20.08;12.50;;;8.80;99.90;;;;;;4962486;28;20265;-89
2020/12/19 04:22:57;;;;;;;17.87;12.93;;;8.90;99.90;;;;;;4946482;28;20270;-89
2020/12/19 04:25:23;;;;;;;20.77;11.53;;;8.90;99.90;;;;;;4936515;29;20741;-89
2020/12/19 04:27:49;;;;;;;18.83;13.13;;;8.90;99.90;;;;;;4927625;29;20209;-89
2020/12/19 04:30:14;;;;;;;20.60;12.73;;;8.90;99.90;;;;;;4959393;29;20613;-89
2020/12/19 04:32:42;;;;;;;22.35;13.70;;;8.90;99.90;;;;;;4943083;29;20174;-89
2020/12/19 04:35:09;;;;;;;24.67;14.07;;;8.90;99.90;;;;;;4943008;29;20171;-89
2020/12/19 04:37:42;;;;;;;21.40;12.93;;;9.00;99.90;;;;;;4943142;29;20199;-89
2020/12/19 04:40:07;;;;;;;18.73;14.50;;;9.00;99.90;;;;;;4976200;28;20178;-89
2020/12/19 04:42:34;;;;;;;23.17;13.93;;;9.00;99.90;;;;;;4944245;29;20178;-89
2020/12/19 04:45:01;;;;;;;21.50;13.93;;;9.00;99.90;;;;;;4960433;29;20191;-89
2020/12/19 04:47:27;;;;;;;23.23;14.73;;;9.10;99.90;;;;;;4961434;28;20189;-89
2020/12/19 04:49:54;;;;;;;25.60;15.47;;;9.10;99.90;;;;;;4979042;28;20162;-91
2020/12/19 04:52:22;;;;;;;22.47;15.53;;;9.10;99.90;;;;;;4986662;28;20190;-89
2020/12/19 04:54:50;;;;;;;22.80;16.07;;;9.10;99.90;;;;;;4985932;28;20186;-91
2020/12/19 04:57:19;;;;;;;26.23;16.63;;;9.10;99.90;;;;;;4983985;28;20186;-88
2020/12/19 04:59:46;;;;;;;32.03;17.98;;;9.10;99.90;;;;;;4989751;28;20242;-89
2020/12/19 05:02:12;;;;;;;28.07;16.60;;;9.10;99.90;;;;;;4960454;29;20265;-90
2020/12/19 05:04:39;;;;;;;25.08;16.75;;;9.10;99.90;;;;;;4961600;29;20537;-89
2020/12/19 05:07:10;;;;;;;26.20;18.03;;;9.10;99.90;;;;;;4961277;29;20278;-89
2020/12/19 05:09:38;;;;;;;28.67;16.97;;;9.10;99.90;;;;;;4944907;29;20179;-89
2020/12/19 05:12:15;;;;;;;28.40;18.50;;;9.20;99.90;;;;;;4961635;28;20230;-89
2020/12/19 05:14:43;;;;;;;32.25;19.13;;;9.20;99.90;;;;;;4979274;28;20637;-90
2020/12/19 05:17:09;;;;;;;27.48;17.08;;;9.20;99.90;;;;;;4978060;28;20693;-89
2020/12/19 05:19:35;;;;;;;27.27;17.80;;;9.20;99.90;;;;;;4978617;28;20171;-89
2020/12/19 05:22:01;;;;;;;33.58;18.75;;;9.20;99.90;;;;;;4933814;29;20637;-89
2020/12/19 05:24:29;;;;;;;29.15;17.90;;;9.30;99.90;;;;;;4959451;29;20203;-89
2020/12/19 05:26:56;;;;;;;29.40;18.23;;;9.40;99.90;;;;;;4958593;29;20175;-91
2020/12/19 05:29:25;;;;;;;30.70;19.30;;;9.40;99.90;;;;;;4967412;28;20701;-89
2020/12/19 05:32:01;;;;;;;29.97;18.30;;;9.40;99.90;;;;;;4977216;28;20652;-89
2020/12/19 05:34:35;;;;;;;33.15;18.92;;;9.40;99.90;;;;;;4958568;29;20539;-89
2020/12/19 05:37:01;;;;;;;30.25;18.05;;;9.40;99.90;;;;;;4957913;29;20214;-90
2020/12/19 05:39:29;;;;;;;30.02;18.83;;;9.40;99.90;;;;;;4962367;28;20170;-90
2020/12/19 05:41:55;;;;;;;33.17;19.30;;;9.50;99.90;;;;;;4944672;28;20192;-92
2020/12/19 05:44:22;;;;;;;28.20;17.80;;;9.50;99.90;;;;;;4976672;28;20698;-90
2020/12/19 05:46:48;;;;;;;27.27;16.88;;;9.50;99.90;;;;;;4976625;28;20195;-90
2020/12/19 05:49:17;;;;;;;28.00;16.27;;;9.60;99.90;;;;;;4977090;28;20177;-89
2020/12/19 05:51:44;;;;;;;30.13;18.20;;;9.50;99.90;;;;;;4986929;28;20158;-88
2020/12/19 05:54:15;;;;;;;34.53;16.80;;;9.50;99.90;;;;;;5000856;28;20162;-91
2020/12/19 05:56:42;;;;;;;30.05;16.02;;;9.50;99.90;;;;;;4984416;28;20193;-88
2020/12/19 05:59:16;;;;;;;23.02;15.48;;;9.70;99.90;;;;;;4992893;28;20177;-90
2020/12/19 06:01:47;;;;;;;28.40;16.30;;;9.60;99.90;;;;;;4977741;28;20170;-88
2020/12/19 06:04:14;;;;;;;28.08;16.17;;;9.60;99.90;;;;;;4969237;28;20171;-89
2020/12/19 06:06:45;;;;;;;24.60;14.80;;;9.60;99.90;;;;;;4925732;29;20179;-89
2020/12/19 06:09:15;;;;;;;26.20;14.88;;;9.70;99.90;;;;;;4963866;28;20163;-88
2020/12/19 06:11:48;;;;;;;22.70;14.77;;;9.70;99.90;;;;;;4987118;28;20143;-91
2020/12/19 06:14:25;;;;;;;22.25;14.95;;;9.70;99.90;;;;;;4984379;28;20207;-91
2020/12/19 06:16:55;;;;;;;19.73;13.48;;;9.80;99.90;;;;;;4980872;28;20232;-90
2020/12/19 06:19:24;;;;;;;17.58;13.95;;;9.80;99.90;;;;;;4976414;28;20174;-90
2020/12/19 06:21:52;;;;;;;24.20;13.88;;;9.70;99.90;;;;;;4992373;28;20277;-89
2020/12/19 06:24:40;;;;;;;18.92;14.48;;;9.80;99.90;;;;;;4975976;28;20166;-89
2020/12/19 06:27:34;;;;;;;16.48;13.15;;;9.80;99.90;;;;;;4977168;28;20176;-88
2020/12/19 06:30:02;;;;;;;18.73;12.85;;;9.90;99.90;;;;;;4974098;28;20261;-89
2020/12/19 06:32:29;;;;;;;20.85;12.35;;;9.80;99.90;;;;;;4992032;28;20274;-90
2020/12/19 06:35:05;;;;;;;15.30;11.82;;;9.80;99.90;;;;;;4960088;28;20565;-89
2020/12/19 06:37:33;;;;;;;17.92;12.93;;;9.80;99.90;;;;;;4973101;28;20281;-90
2020/12/19 06:40:19;;;;;;;16.08;10.93;;;9.80;99.90;;;;;;4956764;29;20182;-89
2020/12/19 06:42:46;;;;;;;17.20;12.25;;;9.80;99.90;;;;;;4956228;29;20182;-90
2020/12/19 06:45:30;;;;;;;17.60;11.55;;;9.80;99.90;;;;;;4940636;29;20190;-89
2020/12/19 06:47:57;;;;;;;17.67;12.30;;;9.90;99.90;;;;;;4940422;29;20175;-89
2020/12/19 06:50:24;;;;;;;12.85;10.27;;;9.90;99.90;;;;;;4940606;29;20178;-89
2020/12/19 06:52:54;;;;;;;20.35;11.25;;;9.90;99.90;;;;;;4961019;28;20643;-89
2020/12/19 06:55:22;;;;;;;11.80;10.30;;;9.90;99.90;;;;;;4976654;28;20178;-89
2020/12/19 06:57:53;;;;;;;15.18;9.75;;;9.90;99.90;;;;;;4959661;28;20623;-89
2020/12/19 07:00:20;;;;;;;15.88;9.93;;;9.90;99.90;;;;;;4960566;28;20219;-88
2020/12/19 07:02:57;;;;;;;12.63;9.55;;;10.00;99.90;;;;;;4981531;28;20170;-89
2020/12/19 07:05:27;;;;;;;12.10;8.45;;;9.90;99.90;;;;;;4963984;28;20174;-89
2020/12/19 07:08:14;;;;;;;10.52;8.43;;;10.00;99.90;;;;;;4978161;28;20178;-89
2020/12/19 07:10:40;;;;;;;13.35;9.02;;;9.90;99.90;;;;;;4977828;28;20181;-89
2020/12/19 07:13:06;;;;;;;10.75;8.55;;;10.00;99.90;;;;;;4976093;28;20182;-89
2020/12/19 07:15:48;;;;;;;13.50;8.55;;;10.00;99.90;;;;;;4961525;28;20269;-90
2020/12/19 07:18:26;;;;;;;13.18;8.60;;;10.10;99.90;;;;;;4978644;28;20202;-90
2020/12/19 07:20:59;;;;;;;12.52;8.07;;;10.10;99.90;;;;;;4977431;28;20172;-89
2020/12/19 07:23:25;;;;;;;9.85;7.97;;;10.10;99.90;;;;;;4976233;28;20178;-90
2020/12/19 07:25:50;;;;;;;11.63;7.63;;;10.10;99.90;;;;;;4959522;29;20226;-90
2020/12/19 07:28:16;;;;;;;13.18;8.15;;;10.10;99.90;;;;;;4947634;28;20197;-89
2020/12/19 07:30:43;;;;;;;13.85;7.40;;;10.20;99.90;;;;;;4962233;28;20574;-87
2020/12/19 07:33:09;;;;;;;7.32;6.63;;;10.20;99.90;;;;;;4977747;28;20194;-88
2020/12/19 07:35:36;;;;;;;9.52;6.72;;;10.20;99.90;;;;;;4977268;28;20193;-88
2020/12/19 07:38:06;;;;;;;14.82;6.43;;;10.20;99.90;;;;;;4963302;28;20203;-89
2020/12/19 07:40:32;;;;;;;14.27;7.95;;;10.30;99.90;;;;;;4956600;29;20170;-88
2020/12/19 07:43:11;;;;;;;11.13;7.15;;;10.30;99.90;;;;;;4977609;28;20628;-88
2020/12/19 07:45:39;;;;;;;13.02;7.28;;;10.30;99.90;;;;;;4978546;28;20265;-90
2020/12/19 07:48:08;;;;;;;6.47;5.93;;;10.40;99.90;;;;;;4994395;28;20650;-89
2020/12/19 07:50:34;;;;;;;10.00;7.40;;;10.40;99.90;;;;;;4964970;28;20175;-88
2020/12/19 07:53:05;;;;;;;10.50;6.50;;;10.50;99.90;;;;;;4956841;29;20178;-89
2020/12/19 07:55:31;;;;;;;8.98;6.15;;;10.60;99.90;;;;;;4941916;29;20175;-88
2020/12/19 07:58:00;;;;;;;10.05;6.47;;;10.60;99.90;;;;;;4959399;28;20209;-88
2020/12/19 08:00:26;;;;;;;8.32;6.18;;;10.70;99.90;;;;;;4959126;29;20179;-89
2020/12/19 08:02:53;;;;;;;7.25;5.93;;;10.80;99.90;;;;;;4956112;29;20170;-89
2020/12/19 08:05:19;;;;;;;7.40;6.20;;;10.80;99.90;;;;;;4958443;29;20175;-90
2020/12/19 08:07:49;;;;;;;8.27;5.88;;;10.90;99.90;;;;;;4958379;29;20632;-89
2020/12/19 08:10:15;;;;;;;7.78;5.22;;;10.90;99.90;;;;;;4973041;28;20217;-89
2020/12/19 08:12:42;;;;;;;9.15;5.78;;;11.00;99.90;;;;;;4992767;28;20186;-89
2020/12/19 08:15:16;;;;;;;12.35;5.65;;;11.10;99.90;;;;;;4960618;28;20695;-88
2020/12/19 08:17:56;;;;;;;5.57;4.55;;;11.10;99.90;;;;;;4958003;29;20238;-90
2020/12/19 08:20:38;;;;;;;5.00;4.60;;;11.20;99.90;;;;;;4977363;28;20158;-89
2020/12/19 08:23:08;;;;;;;5.35;4.85;;;11.30;99.90;;;;;;4978616;28;20251;-87
2020/12/19 08:25:36;;;;;;;6.07;4.43;;;11.30;99.90;;;;;;4995543;28;20166;-90
2020/12/19 08:28:02;;;;;;;4.88;4.43;;;11.30;99.90;;;;;;4961749;28;20228;-89
2020/12/19 08:30:30;;;;;;;6.13;4.43;;;11.40;99.90;;;;;;4972993;28;20300;-89
2020/12/19 08:33:03;;;;;;;5.47;4.20;;;11.40;99.90;;;;;;4958133;29;20167;-89
2020/12/19 08:35:41;;;;;;;5.75;4.25;;;11.50;99.90;;;;;;4958767;29;20171;-89
2020/12/19 08:38:16;;;;;;;6.57;3.88;;;11.60;99.90;;;;;;4992488;28;20205;-91
2020/12/19 08:40:50;;;;;;;8.77;4.38;;;11.60;99.90;;;;;;4978709;28;20193;-89
2020/12/19 08:43:18;;;;;;;6.88;3.78;;;11.60;99.90;;;;;;4971181;28;20201;-89
2020/12/19 08:45:48;;;;;;;4.68;4.07;;;11.60;99.90;;;;;;4965031;28;20150;-86
2020/12/19 08:48:22;;;;;;;4.50;3.85;;;11.60;99.90;;;;;;4985019;28;20181;-92
2020/12/19 08:50:50;;;;;;;4.93;3.60;;;11.60;99.90;;;;;;4996824;28;20155;-90
2020/12/19 08:53:23;;;;;;;6.40;3.33;;;11.60;99.90;;;;;;4981760;28;20174;-89
2020/12/19 08:55:50;;;;;;;5.78;3.65;;;11.60;99.90;;;;;;4960387;29;20242;-90
2020/12/19 08:58:23;;;;;;;4.35;3.63;;;11.60;99.90;;;;;;4955522;29;20226;-90
2020/12/19 09:00:49;;;;;;;6.63;3.22;;;11.70;99.90;;;;;;4939373;29;20195;-89
2020/12/19 09:03:15;;;;;;;6.93;3.05;;;11.70;99.90;;;;;;4955509;29;20183;-90
2020/12/19 09:05:43;;;;;;;4.22;3.30;;;11.70;99.90;;;;;;4959135;28;20189;-90
2020/12/19 09:08:10;;;;;;;5.53;3.35;;;11.80;99.90;;;;;;4961151;28;20632;-91
2020/12/19 09:10:37;;;;;;;8.15;3.08;;;11.70;99.90;;;;;;4979391;28;20174;-89
2020/12/19 09:13:18;;;;;;;3.30;3.00;;;11.70;99.90;;;;;;4964050;28;20302;-90
2020/12/19 09:15:45;;;;;;;5.40;3.60;;;11.80;99.90;;;;;;4979159;28;20178;-91
2020/12/19 09:18:15;;;;;;;4.28;3.35;;;11.80;99.90;;;;;;4963828;28;20630;-88
2020/12/19 09:20:40;;;;;;;4.30;2.78;;;11.90;99.90;;;;;;4981774;28;20184;-89
2020/12/19 09:23:06;;;;;;;4.78;3.42;;;12.00;99.90;;;;;;4981269;28;20175;-89
2020/12/19 09:25:33;;;;;;;3.85;3.33;;;12.00;99.90;;;;;;4963065;28;20175;-89
2020/12/19 09:27:59;;;;;;;6.55;3.20;;;12.10;99.90;;;;;;4982420;28;20178;-90
2020/12/19 09:30:31;;;;;;;5.85;3.25;;;12.20;99.90;;;;;;4973964;28;20655;-91
2020/12/19 09:32:57;;;;;;;4.55;2.70;;;12.30;99.90;;;;;;4979170;28;20175;-89
2020/12/19 09:35:27;;;;;;;3.85;3.10;;;12.30;99.90;;;;;;4946533;28;20536;-90
2020/12/19 09:37:53;;;;;;;6.50;3.00;;;12.30;99.90;;;;;;4978170;28;20784;-90
2020/12/19 09:40:19;;;;;;;4.90;3.30;;;12.30;99.90;;;;;;4981503;28;20162;-89
2020/12/19 09:42:45;;;;;;;6.22;3.00;;;12.20;99.90;;;;;;4963334;28;20516;-89
2020/12/19 09:45:10;;;;;;;5.53;3.03;;;12.30;99.90;;;;;;4946756;28;20193;-91
2020/12/19 09:47:36;;;;;;;4.57;2.83;;;12.40;99.90;;;;;;4978312;28;20205;-91
2020/12/19 09:50:05;;;;;;;3.35;2.70;;;12.40;99.90;;;;;;4962040;28;20619;-89
2020/12/19 09:52:31;;;;;;;6.22;2.90;;;12.50;99.90;;;;;;4962874;28;20178;-89
2020/12/19 09:54:57;;;;;;;4.90;2.92;;;12.50;99.90;;;;;;4981050;28;20224;-89
2020/12/19 09:57:22;;;;;;;4.63;2.60;;;12.50;99.90;;;;;;4980062;28;20232;-90
2020/12/19 09:59:48;;;;;;;8.18;2.58;;;12.50;99.90;;;;;;4979352;28;20229;-89
2020/12/19 10:02:14;;;;;;;4.00;2.85;;;12.50;99.90;;;;;;4965603;28;20209;-89
2020/12/19 10:04:40;;;;;;;12.77;2.55;;;12.50;99.90;;;;;;4963065;28;20228;-89
2020/12/19 10:07:08;;;;;;;5.88;2.25;;;12.50;99.90;;;;;;4963211;28;20182;-89
2020/12/19 10:09:36;;;;;;;10.02;2.10;;;12.50;99.90;;;;;;4948756;28;20174;-89
2020/12/19 10:12:02;;;;;;;7.47;2.50;;;12.70;99.90;;;;;;4978385;28;20265;-90
2020/12/19 10:14:28;;;;;;;2.45;2.20;;;12.70;99.90;;;;;;4979539;28;20212;-89
2020/12/19 10:16:56;;;;;;;2.95;2.25;;;12.70;99.90;;;;;;4978075;28;20248;-91
2020/12/19 10:19:21;;;;;;;4.57;2.15;;;12.70;99.90;;;;;;4961302;28;20610;-92
2020/12/19 10:21:49;;;;;;;6.47;2.35;;;12.70;99.90;;;;;;4978443;28;20205;-92
2020/12/19 10:24:15;;;;;;;4.10;2.22;;;12.70;99.90;;;;;;4977677;28;20174;-91
2020/12/19 10:26:41;;;;;;;3.28;2.20;;;12.70;99.90;;;;;;4979611;28;20201;-91
2020/12/19 10:29:07;;;;;;;3.58;2.38;;;12.80;99.90;;;;;;4979178;28;20209;-91
2020/12/19 10:31:33;;;;;;;3.60;2.03;;;12.60;99.90;;;;;;4979628;28;20185;-90
2020/12/19 10:33:59;;;;;;;4.78;2.38;;;12.70;99.90;;;;;;4978552;28;20181;-91
2020/12/19 10:36:25;;;;;;;2.33;2.05;;;12.70;99.90;;;;;;4962567;28;20198;-92
2020/12/19 10:38:51;;;;;;;2.78;2.20;;;12.70;99.90;;;;;;4978989;28;20641;-89
2020/12/19 10:41:19;;;;;;;2.40;2.17;;;12.80;99.90;;;;;;4980434;28;20273;-91
2020/12/19 10:43:46;;;;;;;3.00;2.42;;;12.70;99.90;;;;;;4981601;28;20198;-89
2020/12/19 10:46:14;;;;;;;4.32;2.45;;;12.70;99.90;;;;;;4969485;28;20170;-90
2020/12/19 10:48:42;;;;;;;3.20;2.55;;;12.70;99.90;;;;;;4998967;28;20177;-89
2020/12/19 10:51:08;;;;;;;3.47;2.10;;;12.70;99.90;;;;;;4982913;28;20193;-91
2020/12/19 10:53:34;;;;;;;3.30;2.47;;;12.60;99.90;;;;;;4995400;28;20567;-90
2020/12/19 10:56:02;;;;;;;3.75;2.10;;;12.60;99.90;;;;;;4976461;28;20192;-91
2020/12/19 10:58:28;;;;;;;5.38;2.70;;;12.50;99.90;;;;;;4975604;28;20206;-90
2020/12/19 11:00:56;;;;;;;7.03;3.50;;;12.30;99.90;;;;;;4978105;28;20643;-90
2020/12/19 11:03:23;;;;;;;4.75;3.08;;;12.00;99.90;;;;;;4977653;28;20170;-91
2020/12/19 11:05:49;;;;;;;5.70;2.33;;;12.00;99.90;;;;;;4998704;28;20158;-91
2020/12/19 11:08:15;;;;;;;3.38;2.40;;;11.90;99.90;;;;;;4998627;28;20190;-92
2020/12/19 11:10:44;;;;;;;4.75;2.42;;;11.80;99.90;;;;;;4991032;28;20195;-91
2020/12/19 11:13:12;;;;;;;8.25;2.63;;;11.80;99.90;;;;;;4977418;28;20186;-91
2020/12/19 11:15:40;;;;;;;5.85;2.80;;;11.80;99.90;;;;;;4960451;28;20186;-91
2020/12/19 11:18:06;;;;;;;5.38;2.20;;;11.70;99.90;;;;;;4975897;28;20245;-91
2020/12/19 11:20:33;;;;;;;3.17;2.60;;;11.60;99.90;;;;;;4976993;28;20249;-91
2020/12/19 11:22:59;;;;;;;3.35;2.88;;;11.60;99.90;;;;;;4975436;28;20170;-91
2020/12/19 11:25:25;;;;;;;4.03;3.00;;;11.70;99.90;;;;;;4975218;28;20173;-91
2020/12/19 11:27:52;;;;;;;2.22;2.10;;;11.60;99.90;;;;;;4972264;28;20238;-91
2020/12/19 11:30:22;;;;;;;3.47;2.72;;;11.60;99.90;;;;;;4973250;28;20538;-90
2020/12/19 11:32:53;;;;;;;2.47;2.28;;;11.70;99.90;;;;;;4966174;29;20179;-86
2020/12/19 11:35:19;;;;;;;4.13;2.83;;;11.80;99.90;;;;;;4969998;28;20675;-90
2020/12/19 11:37:44;;;;;;;3.83;2.30;;;11.80;99.90;;;;;;4957835;29;20237;-90
2020/12/19 11:40:12;;;;;;;5.80;3.08;;;11.80;99.90;;;;;;4979360;28;20212;-89
2020/12/19 11:42:45;;;;;;;3.35;2.28;;;11.60;99.90;;;;;;4959580;28;20178;-90
2020/12/19 11:45:11;;;;;;;5.85;3.05;;;11.50;99.90;;;;;;4976248;28;20190;-90
2020/12/19 11:47:37;;;;;;;3.17;2.25;;;11.40;99.90;;;;;;4976676;28;20550;-92
2020/12/19 11:50:04;;;;;;;4.78;2.55;;;11.40;99.90;;;;;;4960077;28;20175;-90
2020/12/19 11:52:30;;;;;;;5.82;2.92;;;11.30;99.90;;;;;;4976099;28;20175;-90
2020/12/19 11:54:55;;;;;;;2.80;2.60;;;11.30;99.90;;;;;;4977439;28;20174;-90
2020/12/19 11:57:21;;;;;;;3.30;2.50;;;11.40;99.90;;;;;;4975380;28;20213;-89
2020/12/19 11:59:47;;;;;;;4.95;3.28;;;11.30;99.90;;;;;;4944854;28;20217;-89
2020/12/19 12:02:12;;;;;;;5.07;2.67;;;11.30;99.90;;;;;;4944845;28;20616;-89
2020/12/19 12:04:38;;;;;;;3.17;2.88;;;11.20;99.90;;;;;;4961284;28;20575;-89
2020/12/19 12:07:04;;;;;;;4.18;3.33;;;11.30;99.90;;;;;;4945124;28;20178;-89
2020/12/19 12:09:31;;;;;;;3.92;2.95;;;11.30;99.90;;;;;;4980050;28;20166;-89
2020/12/19 12:12:01;;;;;;;6.95;2.88;;;11.30;99.90;;;;;;4962537;28;20194;-88
2020/12/19 12:14:27;;;;;;;6.28;3.38;;;11.30;99.90;;;;;;4978057;28;20193;-89
2020/12/19 12:16:52;;;;;;;3.33;3.03;;;11.20;99.90;;;;;;4962345;28;20210;-89
2020/12/19 12:19:18;;;;;;;5.23;3.10;;;11.20;99.90;;;;;;4960895;28;20485;-89
2020/12/19 12:21:43;;;;;;;4.53;2.88;;;11.20;99.90;;;;;;4986575;28;20178;-95
2020/12/19 12:24:09;;;;;;;4.05;3.28;;;11.30;99.90;;;;;;4981855;28;20154;-90
2020/12/19 12:26:35;;;;;;;4.68;3.13;;;11.40;99.90;;;;;;4981975;28;20162;-94
2020/12/19 12:29:01;;;;;;;3.10;2.72;;;11.40;99.90;;;;;;4996943;28;20193;-90
2020/12/19 12:31:30;;;;;;;6.25;3.35;;;11.50;99.90;;;;;;4981831;28;20170;-88
2020/12/19 12:33:56;;;;;;;3.45;2.60;;;11.60;99.90;;;;;;4987374;28;20265;-90
2020/12/19 12:36:23;;;;;;;5.63;3.00;;;11.60;99.90;;;;;;4978595;28;20579;-89
2020/12/19 12:38:50;;;;;;;4.18;2.58;;;11.60;99.90;;;;;;4979768;28;20193;-89
2020/12/19 12:41:16;;;;;;;3.42;3.00;;;11.60;99.90;;;;;;4996846;28;20170;-89
2020/12/19 12:43:42;;;;;;;4.45;3.03;;;11.70;99.90;;;;;;4997477;28;20186;-89
2020/12/19 12:46:12;;;;;;;4.32;2.90;;;11.70;99.90;;;;;;4981485;28;20214;-88